sensor_id;sensor_type;location;lat;lon;timestamp;P1;durP1;ratioP1;P2;durP2;ratioP2
10142;SDS011;5112;54.088;13.446;2023-12-20T00:02:26;5.33;;;2.87;;
10142;SDS011;5112;54.088;13.446;2023-12-20T00:12:29;4.23;;;2.70;;
10142;SDS011;5112;54.088;13.446;2023-12-20T00:22:31;5.93;;;2.97;;
10142;SDS011;5112;54.088;13.446;2023-12-20T00:32:34;5.60;;;2.53;;
10142;SDS011;5112;54.088;13.446;2023-12-20T00:42:36;4.80;;;2.60;;
10142;SDS011;5112;54.088;13.446;2023-12-20T00:52:39;4.70;;;2.50;;
10142;SDS011;5112;54.088;13.446;2023-12-20T01:02:40;4.10;;;1.90;;
10142;SDS011;5112;54.088;13.446;2023-12-20T01:12:44;5.87;;;2.23;;
10142;SDS011;5112;54.088;13.446;2023-12-20T01:22:45;5.57;;;2.67;;
10142;SDS011;5112;54.088;13.446;2023-12-20T01:32:48;4.40;;;2.57;;
10142;SDS011;5112;54.088;13.446;2023-12-20T01:42:57;5.83;;;2.67;;
10142;SDS011;5112;54.088;13.446;2023-12-20T01:53:01;4.90;;;2.50;;
10142;SDS011;5112;54.088;13.446;2023-12-20T02:03:04;5.63;;;2.50;;
10142;SDS011;5112;54.088;13.446;2023-12-20T02:13:07;4.27;;;2.53;;
10142;SDS011;5112;54.088;13.446;2023-12-20T02:23:11;4.77;;;2.40;;
10142;SDS011;5112;54.088;13.446;2023-12-20T02:33:13;6.43;;;2.57;;
10142;SDS011;5112;54.088;13.446;2023-12-20T02:43:17;3.23;;;2.40;;
10142;SDS011;5112;54.088;13.446;2023-12-20T02:53:19;6.43;;;2.80;;
10142;SDS011;5112;54.088;13.446;2023-12-20T03:03:22;3.93;;;2.77;;
10142;SDS011;5112;54.088;13.446;2023-12-20T03:13:23;7.47;;;2.70;;
10142;SDS011;5112;54.088;13.446;2023-12-20T03:23:26;6.77;;;2.97;;
10142;SDS011;5112;54.088;13.446;2023-12-20T03:33:28;4.47;;;3.00;;
10142;SDS011;5112;54.088;13.446;2023-12-20T03:43:31;5.27;;;3.10;;
10142;SDS011;5112;54.088;13.446;2023-12-20T03:53:32;6.33;;;3.27;;
10142;SDS011;5112;54.088;13.446;2023-12-20T04:03:35;3.63;;;2.30;;
10142;SDS011;5112;54.088;13.446;2023-12-20T04:13:37;6.67;;;2.70;;
10142;SDS011;5112;54.088;13.446;2023-12-20T04:23:40;5.90;;;2.50;;
10142;SDS011;5112;54.088;13.446;2023-12-20T04:33:42;5.37;;;2.67;;
10142;SDS011;5112;54.088;13.446;2023-12-20T04:43:44;4.83;;;2.40;;
10142;SDS011;5112;54.088;13.446;2023-12-20T04:53:46;9.90;;;2.03;;
10142;SDS011;5112;54.088;13.446;2023-12-20T05:03:49;5.27;;;2.33;;
10142;SDS011;5112;54.088;13.446;2023-12-20T05:13:51;11.37;;;2.30;;
10142;SDS011;5112;54.088;13.446;2023-12-20T05:23:54;9.77;;;3.07;;
10142;SDS011;5112;54.088;13.446;2023-12-20T05:33:55;9.57;;;2.87;;
10142;SDS011;5112;54.088;13.446;2023-12-20T05:43:58;8.87;;;3.43;;
10142;SDS011;5112;54.088;13.446;2023-12-20T05:54:00;11.47;;;3.50;;
10142;SDS011;5112;54.088;13.446;2023-12-20T06:04:03;10.77;;;4.10;;
10142;SDS011;5112;54.088;13.446;2023-12-20T06:14:04;5.30;;;2.97;;
10142;SDS011;5112;54.088;13.446;2023-12-20T06:24:07;9.90;;;3.87;;
10142;SDS011;5112;54.088;13.446;2023-12-20T06:34:09;7.60;;;3.87;;
10142;SDS011;5112;54.088;13.446;2023-12-20T06:44:12;10.33;;;3.63;;
10142;SDS011;5112;54.088;13.446;2023-12-20T06:54:14;12.67;;;4.63;;
10142;SDS011;5112;54.088;13.446;2023-12-20T07:04:17;9.33;;;3.90;;
10142;SDS011;5112;54.088;13.446;2023-12-20T07:14:21;8.20;;;2.83;;
10142;SDS011;5112;54.088;13.446;2023-12-20T07:24:25;4.60;;;2.83;;
10142;SDS011;5112;54.088;13.446;2023-12-20T07:34:26;6.23;;;3.07;;
10142;SDS011;5112;54.088;13.446;2023-12-20T07:44:29;4.77;;;3.00;;
10142;SDS011;5112;54.088;13.446;2023-12-20T07:54:31;8.20;;;3.17;;
10142;SDS011;5112;54.088;13.446;2023-12-20T08:04:34;8.47;;;3.47;;
10142;SDS011;5112;54.088;13.446;2023-12-20T08:14:35;7.17;;;3.40;;
10142;SDS011;5112;54.088;13.446;2023-12-20T08:24:38;7.33;;;3.40;;
10142;SDS011;5112;54.088;13.446;2023-12-20T08:34:40;6.53;;;3.00;;
10142;SDS011;5112;54.088;13.446;2023-12-20T08:44:43;5.33;;;2.43;;
10142;SDS011;5112;54.088;13.446;2023-12-20T08:54:44;7.50;;;3.87;;
10142;SDS011;5112;54.088;13.446;2023-12-20T09:04:48;15.07;;;4.37;;
10142;SDS011;5112;54.088;13.446;2023-12-20T09:14:50;6.53;;;4.10;;
10142;SDS011;5112;54.088;13.446;2023-12-20T09:24:54;7.17;;;4.00;;
10142;SDS011;5112;54.088;13.446;2023-12-20T09:34:56;8.73;;;3.70;;
10142;SDS011;5112;54.088;13.446;2023-12-20T09:44:59;7.67;;;3.73;;
10142;SDS011;5112;54.088;13.446;2023-12-20T09:55:03;6.00;;;4.17;;
10142;SDS011;5112;54.088;13.446;2023-12-20T10:05:07;7.87;;;4.47;;
10142;SDS011;5112;54.088;13.446;2023-12-20T10:15:09;6.90;;;4.10;;
10142;SDS011;5112;54.088;13.446;2023-12-20T10:25:12;9.77;;;4.27;;
10142;SDS011;5112;54.088;13.446;2023-12-20T10:35:14;5.83;;;4.00;;
10142;SDS011;5112;54.088;13.446;2023-12-20T10:45:18;4.90;;;3.57;;
10142;SDS011;5112;54.088;13.446;2023-12-20T10:55:19;4.63;;;2.80;;
10142;SDS011;5112;54.088;13.446;2023-12-20T11:05:28;4.23;;;2.50;;
10142;SDS011;5112;54.088;13.446;2023-12-20T11:15:35;7.77;;;3.23;;
10142;SDS011;5112;54.088;13.446;2023-12-20T11:25:48;4.97;;;3.03;;
10142;SDS011;5112;54.088;13.446;2023-12-20T11:35:55;5.37;;;2.20;;
10142;SDS011;5112;54.088;13.446;2023-12-20T11:46:03;8.30;;;3.00;;
10142;SDS011;5112;54.088;13.446;2023-12-20T11:56:06;6.40;;;2.63;;
10142;SDS011;5112;54.088;13.446;2023-12-20T12:06:09;7.17;;;2.33;;
10142;SDS011;5112;54.088;13.446;2023-12-20T12:16:11;2.00;;;1.30;;
10142;SDS011;5112;54.088;13.446;2023-12-20T12:26:14;2.80;;;1.47;;
10142;SDS011;5112;54.088;13.446;2023-12-20T12:36:16;1.93;;;1.03;;
10142;SDS011;5112;54.088;13.446;2023-12-20T12:46:19;2.27;;;0.90;;
10142;SDS011;5112;54.088;13.446;2023-12-20T12:56:21;1.30;;;0.93;;
10142;SDS011;5112;54.088;13.446;2023-12-20T13:06:24;1.93;;;1.17;;
10142;SDS011;5112;54.088;13.446;2023-12-20T13:16:26;2.07;;;1.10;;
10142;SDS011;5112;54.088;13.446;2023-12-20T13:26:29;1.37;;;1.20;;
10142;SDS011;5112;54.088;13.446;2023-12-20T13:36:31;1.70;;;1.00;;
10142;SDS011;5112;54.088;13.446;2023-12-20T13:46:34;4.00;;;1.03;;
10142;SDS011;5112;54.088;13.446;2023-12-20T13:56:36;4.90;;;1.33;;
10142;SDS011;5112;54.088;13.446;2023-12-20T14:06:39;2.60;;;1.13;;
10142;SDS011;5112;54.088;13.446;2023-12-20T14:16:42;4.60;;;1.60;;
10142;SDS011;5112;54.088;13.446;2023-12-20T14:26:46;6.70;;;1.50;;
